Time;durP1;ratioP1;P1;durP2;ratioP2;P2;SDS_P1;SDS_P2;PMS_P1;PMS_P2;Temp;Humidity;BMP_temperature;BMP_pressure;BME280_temperature;BME280_humidity;BME280_pressure;Samples;Min_cycle;Max_cycle;Signal;HPM_P1;HPM_P2
2022/11/14 05:30:26;;;;;;;;;36.33;31.00;;;;;;;;5893658;23;45256;-61
2022/11/14 05:32:51;;;;;;;;;27.33;25.00;;;;;;;;4978106;28;45977;-62
2022/11/14 05:35:16;;;;;;;;;32.00;29.00;;;;;;;;4961561;28;45519;-62
2022/11/14 05:37:42;;;;;;;;;34.33;31.67;;;;;;;;4978862;28;45420;-62
2022/11/14 05:40:07;;;;;;;;;39.67;32.67;;;;;;;;4979252;28;45289;-61
2022/11/14 05:42:32;;;;;;;;;42.00;33.00;;;;;;;;4979477;28;46024;-61
2022/11/14 05:44:57;;;;;;;;;32.67;28.00;;;;;;;;4978771;28;45490;-61
2022/11/14 05:47:23;;;;;;;;;26.33;26.33;;;;;;;;4978856;28;45341;-62
2022/11/14 05:49:48;;;;;;;;;36.67;32.33;;;;;;;;4989632;28;45434;-63
2022/11/14 05:52:13;;;;;;;;;24.33;23.33;;;;;;;;4985899;28;46178;-62
2022/11/14 05:54:38;;;;;;;;;32.00;27.33;;;;;;;;4992320;28;45321;-63
2022/11/14 05:57:03;;;;;;;;;35.00;28.67;;;;;;;;4978484;28;45384;-63
2022/11/14 05:59:28;;;;;;;;;40.67;34.67;;;;;;;;4980505;28;45217;-61
2022/11/14 06:01:54;;;;;;;;;38.00;33.00;;;;;;;;4971961;28;46871;-61
2022/11/14 06:04:19;;;;;;;;;35.67;33.67;;;;;;;;4978110;28;45445;-61
2022/11/14 06:06:44;;;;;;;;;42.00;32.00;;;;;;;;4977731;28;45638;-62
2022/11/14 06:09:09;;;;;;;;;37.00;31.67;;;;;;;;4978495;28;45490;-63
2022/11/14 06:11:35;;;;;;;;;36.00;29.00;;;;;;;;4979532;28;45518;-63
2022/11/14 06:14:00;;;;;;;;;35.00;31.00;;;;;;;;4986738;28;46317;-62
2022/11/14 06:16:25;;;;;;;;;39.67;32.33;;;;;;;;4992077;28;45408;-62
2022/11/14 06:18:54;;;;;;;;;45.33;33.33;;;;;;;;4983212;28;45400;-62
2022/11/14 06:21:19;;;;;;;;;27.00;26.67;;;;;;;;4979910;28;46865;-62
2022/11/14 06:23:45;;;;;;;;;30.00;28.67;;;;;;;;4981501;28;45830;-62
2022/11/14 06:26:18;;;;;;;;;37.33;33.67;;;;;;;;4982108;28;45528;-62
2022/11/14 06:28:43;;;;;;;;;35.33;28.67;;;;;;;;4981424;28;45259;-63
2022/11/14 06:31:09;;;;;;;;;34.00;30.33;;;;;;;;4983600;28;46984;-62
2022/11/14 06:33:34;;;;;;;;;34.67;32.00;;;;;;;;4995908;28;45340;-62
2022/11/14 06:36:01;;;;;;;;;41.67;35.00;;;;;;;;5001483;28;45370;-62
2022/11/14 06:38:26;;;;;;;;;31.00;30.00;;;;;;;;5002159;28;45650;-62
2022/11/14 06:40:52;;;;;;;;;30.00;28.33;;;;;;;;5005658;28;46195;-62
2022/11/14 06:43:17;;;;;;;;;40.00;32.33;;;;;;;;5000957;28;45443;-62
2022/11/14 06:45:42;;;;;;;;;32.33;30.67;;;;;;;;4992846;28;45525;-62
2022/11/14 06:48:07;;;;;;;;;37.00;28.00;;;;;;;;4999248;28;45402;-62
2022/11/14 06:50:32;;;;;;;;;28.67;25.67;;;;;;;;5001337;28;45394;-62
2022/11/14 06:52:58;;;;;;;;;33.00;29.67;;;;;;;;4999775;28;45335;-62
2022/11/14 06:55:23;;;;;;;;;38.00;30.67;;;;;;;;5000291;28;45323;-62
2022/11/14 06:57:53;;;;;;;;;36.00;31.67;;;;;;;;5000361;28;45450;-61
2022/11/14 07:00:18;;;;;;;;;37.00;30.00;;;;;;;;4996527;28;46188;-62
2022/11/14 07:02:47;;;;;;;;;30.00;27.00;;;;;;;;4999625;28;45482;-62
2022/11/14 07:05:12;;;;;;;;;29.33;27.00;;;;;;;;5001366;28;45366;-62
2022/11/14 07:07:38;;;;;;;;;29.00;28.00;;;;;;;;5000462;28;45439;-62
2022/11/14 07:10:03;;;;;;;;;33.67;28.67;;;;;;;;4998098;28;45433;-62
2022/11/14 07:12:28;;;;;;;;;37.00;29.67;;;;;;;;4991660;28;45415;-62
2022/11/14 07:14:53;;;;;;;;;28.33;26.67;;;;;;;;4999986;28;45336;-62
2022/11/14 07:17:19;;;;;;;;;26.67;24.00;;;;;;;;5000739;28;45344;-63
2022/11/14 07:19:44;;;;;;;;;29.00;26.00;;;;;;;;4997847;28;46261;-62
2022/11/14 07:22:09;;;;;;;;;28.00;24.33;;;;;;;;5001994;28;45553;-63
2022/11/14 07:24:34;;;;;;;;;32.33;26.00;;;;;;;;5000256;28;45411;-63
2022/11/14 07:27:00;;;;;;;;;24.33;20.33;;;;;;;;5000109;28;45412;-63
2022/11/14 07:29:26;;;;;;;;;23.67;23.33;;;;;;;;5001963;28;46949;-62
2022/11/14 07:31:51;;;;;;;;;33.67;26.33;;;;;;;;4997323;28;45486;-62
2022/11/14 07:34:17;;;;;;;;;32.33;25.67;;;;;;;;5001941;28;45522;-62
2022/11/14 07:36:42;;;;;;;;;25.00;23.00;;;;;;;;5004805;28;45510;-62
2022/11/14 07:39:08;;;;;;;;;26.33;24.67;;;;;;;;4997754;28;46196;-60
2022/11/14 07:41:33;;;;;;;;;28.33;22.33;;;;;;;;4994966;28;45456;-61
2022/11/14 07:43:58;;;;;;;;;29.00;23.33;;;;;;;;5000251;28;45518;-61
2022/11/14 07:46:23;;;;;;;;;31.33;25.33;;;;;;;;5000480;28;45363;-62
2022/11/14 07:48:49;;;;;;;;;33.00;22.67;;;;;;;;5000355;28;45797;-61
2022/11/14 07:51:17;;;;;;;;;30.67;28.00;;;;;;;;5001906;28;46716;-61
2022/11/14 07:53:42;;;;;;;;;23.33;21.00;;;;;;;;4999723;28;45458;-61
2022/11/14 07:56:08;;;;;;;;;23.33;20.33;;;;;;;;5000950;28;45672;-62
2022/11/14 07:58:34;;;;;;;;;19.00;19.00;;;;;;;;4981725;28;45887;-62
2022/11/14 08:01:00;;;;;;;;;28.67;24.33;;;;;;;;4995268;28;45404;-62
2022/11/14 08:03:26;;;;;;;;;23.00;19.67;;;;;;;;4997322;28;46728;-62
2022/11/14 08:05:51;;;;;;;;;25.33;21.67;;;;;;;;4997160;28;45632;-62
2022/11/14 08:08:16;;;;;;;;;27.00;22.00;;;;;;;;5003130;28;45435;-62
2022/11/14 08:10:41;;;;;;;;;26.00;22.33;;;;;;;;4999863;28;45255;-62
2022/11/14 08:13:07;;;;;;;;;21.67;19.67;;;;;;;;4991667;28;45631;-61
2022/11/14 08:15:32;;;;;;;;;24.67;24.33;;;;;;;;4988483;28;45458;-61
2022/11/14 08:17:58;;;;;;;;;25.67;22.67;;;;;;;;4998487;28;45371;-62
2022/11/14 08:20:23;;;;;;;;;25.00;22.33;;;;;;;;4999890;28;45340;-61
2022/11/14 08:22:48;;;;;;;;;27.00;24.67;;;;;;;;4999710;28;45270;-61
2022/11/14 08:25:14;;;;;;;;;23.67;23.00;;;;;;;;4988828;28;45598;-60
2022/11/14 08:27:39;;;;;;;;;23.00;19.00;;;;;;;;4993732;28;47085;-61
2022/11/14 08:30:04;;;;;;;;;32.67;25.00;;;;;;;;4993133;28;45565;-61
2022/11/14 08:32:29;;;;;;;;;26.33;24.00;;;;;;;;4978710;28;45489;-61
2022/11/14 08:34:55;;;;;;;;;27.33;23.67;;;;;;;;5000562;28;45628;-61
2022/11/14 08:37:20;;;;;;;;;27.00;25.00;;;;;;;;4998505;28;46727;-61
2022/11/14 08:39:45;;;;;;;;;25.33;24.33;;;;;;;;5006720;28;45185;-61
2022/11/14 08:42:10;;;;;;;;;29.33;26.33;;;;;;;;4997644;28;46196;-61
2022/11/14 08:44:35;;;;;;;;;24.67;23.67;;;;;;;;4997687;28;45603;-62
2022/11/14 08:47:02;;;;;;;;;27.00;21.33;;;;;;;;4979370;28;47238;-62
2022/11/14 08:49:27;;;;;;;;;32.33;25.67;;;;;;;;4999016;28;45703;-62
2022/11/14 08:51:52;;;;;;;;;31.00;25.00;;;;;;;;5008299;28;45483;-62
2022/11/14 08:54:18;;;;;;;;;28.00;23.00;;;;;;;;4996140;28;45661;-62
2022/11/14 08:56:43;;;;;;;;;25.00;22.00;;;;;;;;4998644;28;45943;-62
2022/11/14 08:59:08;;;;;;;;;31.33;28.33;;;;;;;;5003149;28;45324;-62
2022/11/14 09:01:34;;;;;;;;;29.00;24.67;;;;;;;;4999191;28;45910;-62
2022/11/14 09:03:59;;;;;;;;;29.67;24.67;;;;;;;;5009051;28;45350;-62
2022/11/14 09:06:24;;;;;;;;;29.00;24.00;;;;;;;;5004006;28;46161;-62
2022/11/14 09:08:50;;;;;;;;;26.67;21.33;;;;;;;;5008732;28;45307;-62
2022/11/14 09:11:15;;;;;;;;;27.67;20.67;;;;;;;;5003615;28;45280;-62
2022/11/14 09:13:40;;;;;;;;;21.00;19.00;;;;;;;;5003163;28;46021;-62
2022/11/14 09:16:05;;;;;;;;;26.33;22.33;;;;;;;;5011951;28;45438;-62
2022/11/14 09:18:31;;;;;;;;;22.50;21.50;;;;;;;;4999120;28;45447;-62
2022/11/14 09:21:03;;;;;;;;;27.00;22.33;;;;;;;;4998719;28;45459;-62
2022/11/14 09:23:29;;;;;;;;;25.00;24.00;;;;;;;;4997029;28;45411;-62
2022/11/14 09:25:55;;;;;;;;;28.00;23.67;;;;;;;;4995347;28;45542;-62
2022/11/14 09:28:21;;;;;;;;;27.67;25.00;;;;;;;;4999984;28;45475;-62
2022/11/14 09:30:46;;;;;;;;;24.67;22.33;;;;;;;;4996614;28;45394;-62
2022/11/14 09:33:11;;;;;;;;;26.00;23.67;;;;;;;;5006840;28;45770;-61
2022/11/14 09:35:36;;;;;;;;;25.00;24.67;;;;;;;;4998038;28;46143;-61
2022/11/14 09:38:03;;;;;;;;;23.00;21.67;;;;;;;;4999939;28;45358;-61
2022/11/14 09:40:30;;;;;;;;;26.33;21.33;;;;;;;;5000666;28;45358;-61
2022/11/14 09:43:18;;;;;;;;;28.00;23.33;;;;;;;;4997190;28;45450;-62
2022/11/14 09:45:47;;;;;;;;;23.33;21.67;;;;;;;;4975604;28;46148;-63
2022/11/14 09:48:24;;;;;;;;;28.33;25.67;;;;;;;;4998734;28;45427;-62
2022/11/14 09:51:09;;;;;;;;;24.67;22.67;;;;;;;;5008633;28;45293;-62
2022/11/14 09:53:51;;;;;;;;;24.67;22.67;;;;;;;;4998489;28;45426;-62
2022/11/14 09:56:19;;;;;;;;;29.33;24.33;;;;;;;;4997368;28;45301;-63
2022/11/14 09:58:44;;;;;;;;;22.00;22.00;;;;;;;;4998002;28;45228;-62
2022/11/14 10:01:28;;;;;;;;;26.67;25.00;;;;;;;;4996219;28;45319;-63
2022/11/14 10:04:01;;;;;;;;;27.67;23.00;;;;;;;;4988741;28;45395;-63
2022/11/14 10:06:42;;;;;;;;;23.67;22.67;;;;;;;;4998915;28;45402;-62
2022/11/14 10:09:19;;;;;;;;;21.33;21.00;;;;;;;;4999209;28;45357;-61
2022/11/14 10:11:52;;;;;;;;;21.00;19.33;;;;;;;;4996488;28;45451;-61
2022/11/14 10:14:20;;;;;;;;;26.00;22.67;;;;;;;;4995063;28;45453;-61
2022/11/14 10:16:46;;;;;;;;;28.67;22.33;;;;;;;;4993399;28;45655;-61
2022/11/14 10:19:14;;;;;;;;;26.00;23.67;;;;;;;;5005426;28;45564;-61
2022/11/14 10:21:51;;;;;;;;;23.67;22.33;;;;;;;;5001986;28;45430;-62
2022/11/14 10:24:25;;;;;;;;;23.67;22.33;;;;;;;;4998904;28;45712;-62
2022/11/14 10:27:00;;;;;;;;;25.00;22.67;;;;;;;;5004054;28;46213;-62
2022/11/14 10:29:28;;;;;;;;;25.33;21.67;;;;;;;;5001617;28;45626;-62
2022/11/14 10:32:02;;;;;;;;;23.00;21.00;;;;;;;;4993851;28;45335;-62
2022/11/14 10:34:46;;;;;;;;;21.33;19.00;;;;;;;;4995821;28;45565;-62
2022/11/14 10:37:19;;;;;;;;;19.33;17.67;;;;;;;;4996592;28;45335;-62
2022/11/14 10:39:55;;;;;;;;;19.33;19.00;;;;;;;;5003959;28;45476;-62
2022/11/14 10:42:33;;;;;;;;;20.00;17.33;;;;;;;;4999687;28;45420;-62
2022/11/14 10:45:07;;;;;;;;;18.33;17.67;;;;;;;;4995062;28;45471;-62
2022/11/14 10:47:53;;;;;;;;;16.67;15.33;;;;;;;;5001431;28;45467;-62
2022/11/14 10:50:20;;;;;;;;;17.00;17.00;;;;;;;;4998445;28;45371;-62
2022/11/14 10:52:46;;;;;;;;;16.33;16.00;;;;;;;;4996731;28;45339;-62
2022/11/14 10:55:15;;;;;;;;;17.00;16.33;;;;;;;;4996937;28;45158;-62
2022/11/14 10:57:41;;;;;;;;;20.33;20.33;;;;;;;;4996672;28;46015;-62
2022/11/14 11:00:15;;;;;;;;;18.00;15.67;;;;;;;;4999336;28;45336;-62
2022/11/14 11:02:54;;;;;;;;;20.00;19.67;;;;;;;;4998496;28;45550;-62
2022/11/14 11:05:21;;;;;;;;;25.00;21.33;;;;;;;;4998601;28;45765;-59
2022/11/14 11:13:28;;;;;;;;;22.00;19.33;;;;;;;;5005248;28;45469;-60
2022/11/14 11:15:55;;;;;;;;;23.33;20.67;;;;;;;;5001660;28;45693;-60
2022/11/14 11:18:26;;;;;;;;;27.67;23.00;;;;;;;;5001013;28;46190;-60
2022/11/14 11:21:06;;;;;;;;;17.00;15.67;;;;;;;;5010564;28;45262;-60
2022/11/14 11:23:32;;;;;;;;;22.33;22.33;;;;;;;;4999716;28;45493;-59
2022/11/14 11:26:06;;;;;;;;;20.33;20.33;;;;;;;;5000014;28;45463;-59
2022/11/14 11:28:36;;;;;;;;;20.00;18.33;;;;;;;;4994317;28;47066;-59
2022/11/14 11:31:03;;;;;;;;;22.67;19.00;;;;;;;;4981049;28;45573;-59
2022/11/14 11:33:32;;;;;;;;;24.33;23.33;;;;;;;;5001471;28;45221;-59
2022/11/14 11:36:17;;;;;;;;;22.67;19.00;;;;;;;;5001125;28;45392;-59
2022/11/14 11:38:43;;;;;;;;;21.00;19.33;;;;;;;;4998516;28;45589;-59
2022/11/14 11:41:20;;;;;;;;;19.33;18.67;;;;;;;;4999349;28;45296;-59
2022/11/14 11:43:56;;;;;;;;;21.00;17.33;;;;;;;;5000359;28;45555;-59
2022/11/14 11:46:40;;;;;;;;;21.33;19.67;;;;;;;;5000779;28;45577;-59
2022/11/14 11:49:09;;;;;;;;;30.67;22.67;;;;;;;;5000079;28;45303;-60
2022/11/14 11:51:38;;;;;;;;;22.67;19.00;;;;;;;;4998523;28;45328;-60
2022/11/14 11:54:09;;;;;;;;;20.33;19.33;;;;;;;;4997031;28;45372;-60
2022/11/14 11:56:35;;;;;;;;;25.00;22.33;;;;;;;;4999871;28;45595;-60
2022/11/14 11:59:20;;;;;;;;;17.67;16.00;;;;;;;;5007163;28;45426;-60
2022/11/14 12:01:46;;;;;;;;;23.33;21.00;;;;;;;;5001521;28;45283;-60
2022/11/14 12:04:11;;;;;;;;;20.67;18.67;;;;;;;;5006933;28;45241;-59
2022/11/14 12:07:02;;;;;;;;;22.00;20.33;;;;;;;;4999154;28;45321;-59
2022/11/14 12:09:32;;;;;;;;;26.00;22.00;;;;;;;;4996618;28;45393;-61
2022/11/14 12:12:02;;;;;;;;;22.67;21.00;;;;;;;;4996224;28;45707;-62
2022/11/14 12:14:33;;;;;;;;;19.67;18.00;;;;;;;;5014383;28;45306;-61
2022/11/14 12:17:17;;;;;;;;;21.67;19.67;;;;;;;;4995564;28;45672;-61
2022/11/14 12:19:48;;;;;;;;;22.00;18.67;;;;;;;;5004191;28;46356;-62
2022/11/14 12:22:13;;;;;;;;;28.00;24.67;;;;;;;;4999800;28;45284;-60
2022/11/14 12:25:03;;;;;;;;;23.75;22.50;;;;;;;;5000231;28;46639;-60
2022/11/14 12:27:48;;;;;;;;;22.00;20.67;;;;;;;;4993326;28;45396;-60
2022/11/14 12:30:13;;;;;;;;;19.67;17.67;;;;;;;;4987889;28;46293;-60
2022/11/14 12:32:43;;;;;;;;;16.33;13.33;;;;;;;;5001530;28;45435;-60
2022/11/14 12:35:15;;;;;;;;;24.67;22.33;;;;;;;;4996852;28;45673;-60
2022/11/14 12:37:45;;;;;;;;;19.33;18.00;;;;;;;;4988186;28;45257;-60
2022/11/14 12:40:24;;;;;;;;;26.00;23.00;;;;;;;;4989571;28;46376;-60
2022/11/14 12:42:49;;;;;;;;;26.67;22.33;;;;;;;;4995222;28;45537;-60
2022/11/14 12:45:53;;;;;;;;;21.33;21.00;;;;;;;;5003554;28;45312;-60
2022/11/14 12:48:27;;;;;;;;;21.33;21.00;;;;;;;;4907105;28;45438;-60
2022/11/14 12:50:53;;;;;;;;;27.00;24.33;;;;;;;;4907706;28;46072;-60
2022/11/14 12:53:36;;;;;;;;;22.00;22.00;;;;;;;;4952048;28;45429;-60
2022/11/14 12:56:20;;;;;;;;;19.33;19.00;;;;;;;;4997098;28;45501;-60
2022/11/14 12:58:57;;;;;;;;;24.33;23.00;;;;;;;;4999246;28;45538;-60
2022/11/14 13:01:26;;;;;;;;;21.33;19.33;;;;;;;;4999085;28;46317;-61
2022/11/14 13:04:01;;;;;;;;;32.67;22.00;;;;;;;;4998893;28;45331;-60
2022/11/14 13:06:26;;;;;;;;;23.00;21.00;;;;;;;;4999941;28;45458;-60
2022/11/14 13:09:00;;;;;;;;;26.00;19.67;;;;;;;;4997785;28;47083;-59
2022/11/14 13:23:04;;;;;;;;;27.00;25.67;;;;;;;;4996193;28;45922;-60
2022/11/14 13:25:29;;;;;;;;;29.00;24.33;;;;;;;;4998807;28;45533;-60
2022/11/14 13:27:57;;;;;;;;;26.33;21.67;;;;;;;;4996798;28;45328;-59
2022/11/14 13:30:42;;;;;;;;;23.33;21.67;;;;;;;;4997115;28;45618;-60
2022/11/14 13:33:07;;;;;;;;;21.00;20.67;;;;;;;;4990234;28;46071;-59
2022/11/14 13:35:49;;;;;;;;;21.33;21.33;;;;;;;;4995432;28;46076;-60
2022/11/14 13:38:14;;;;;;;;;22.00;21.67;;;;;;;;4999141;28;45399;-59
2022/11/14 13:40:41;;;;;;;;;24.67;22.33;;;;;;;;4997422;28;45293;-59
2022/11/14 13:43:21;;;;;;;;;28.67;25.33;;;;;;;;4998462;28;46417;-60
2022/11/14 13:45:53;;;;;;;;;27.00;25.33;;;;;;;;4994947;28;45650;-59
2022/11/14 13:48:35;;;;;;;;;28.00;24.67;;;;;;;;4997751;28;45328;-60
2022/11/14 13:51:03;;;;;;;;;21.00;20.00;;;;;;;;4991869;28;45412;-60
2022/11/14 13:53:29;;;;;;;;;21.00;19.33;;;;;;;;4995472;28;45328;-60
2022/11/14 13:55:58;;;;;;;;;22.00;22.00;;;;;;;;4995461;28;45392;-60
2022/11/14 13:58:41;;;;;;;;;19.33;17.33;;;;;;;;4998504;28;45572;-60
2022/11/14 14:01:18;;;;;;;;;21.67;20.33;;;;;;;;4995952;28;45426;-62
2022/11/14 14:04:02;;;;;;;;;18.33;17.00;;;;;;;;4994730;28;46628;-61
2022/11/14 14:06:27;;;;;;;;;15.67;15.67;;;;;;;;4998131;28;45405;-60
2022/11/14 14:08:55;;;;;;;;;18.33;18.00;;;;;;;;4997953;28;45737;-60
2022/11/14 14:11:26;;;;;;;;;22.33;20.00;;;;;;;;4996360;28;45578;-60
2022/11/14 14:14:10;;;;;;;;;13.67;13.67;;;;;;;;4996812;28;45578;-59
2022/11/14 14:16:38;;;;;;;;;20.33;18.00;;;;;;;;5001771;28;45493;-59
2022/11/14 14:19:20;;;;;;;;;25.00;19.00;;;;;;;;4991861;28;45569;-58
2022/11/14 14:21:56;;;;;;;;;24.33;19.00;;;;;;;;4986519;28;45320;-57
2022/11/14 14:24:21;;;;;;;;;19.67;17.33;;;;;;;;4997110;28;45269;-58
2022/11/14 14:26:58;;;;;;;;;20.50;18.50;;;;;;;;4997897;28;45351;-58
2022/11/14 14:29:41;;;;;;;;;16.33;16.00;;;;;;;;4997788;28;45406;-58
2022/11/14 14:32:11;;;;;;;;;27.00;21.67;;;;;;;;4993564;28;45593;-58
2022/11/14 14:34:36;;;;;;;;;28.33;25.00;;;;;;;;5000943;28;46142;-58
2022/11/14 14:37:01;;;;;;;;;24.00;22.33;;;;;;;;4999017;28;45359;-58
2022/11/14 14:39:27;;;;;;;;;24.67;23.67;;;;;;;;4995891;28;45681;-58
2022/11/14 14:41:56;;;;;;;;;29.67;26.00;;;;;;;;5001036;28;45363;-58
2022/11/14 14:44:24;;;;;;;;;24.33;24.33;;;;;;;;5003648;28;46238;-59
2022/11/14 14:46:49;;;;;;;;;29.67;29.33;;;;;;;;4997054;28;45471;-58
2022/11/14 14:49:23;;;;;;;;;27.00;25.33;;;;;;;;4997176;28;45336;-59
2022/11/14 14:51:49;;;;;;;;;32.00;27.67;;;;;;;;4999430;28;45620;-59
2022/11/14 14:54:18;;;;;;;;;29.00;26.33;;;;;;;;5005461;28;46335;-59
2022/11/14 14:56:54;;;;;;;;;32.00;29.67;;;;;;;;5007500;28;45745;-59
2022/11/14 14:59:23;;;;;;;;;32.00;25.33;;;;;;;;5007464;28;45454;-59
2022/11/14 15:01:48;;;;;;;;;28.67;25.33;;;;;;;;5007873;28;45389;-59
2022/11/14 15:04:15;;;;;;;;;23.67;21.00;;;;;;;;5000614;28;45366;-59
2022/11/14 15:06:43;;;;;;;;;20.00;20.00;;;;;;;;5000571;28;45650;-59
2022/11/14 15:09:12;;;;;;;;;24.00;20.67;;;;;;;;5012478;28;45400;-59
2022/11/14 15:11:39;;;;;;;;;20.00;18.00;;;;;;;;5003002;28;45340;-60
2022/11/14 15:14:05;;;;;;;;;23.67;22.33;;;;;;;;5008387;28;45395;-59
2022/11/14 15:16:31;;;;;;;;;24.33;23.33;;;;;;;;5016119;28;45416;-59
2022/11/14 15:18:57;;;;;;;;;26.67;24.00;;;;;;;;5004927;28;45383;-59
2022/11/14 15:21:26;;;;;;;;;23.67;23.00;;;;;;;;5000788;28;45466;-60
2022/11/14 15:23:59;;;;;;;;;29.67;23.67;;;;;;;;5004605;28;47104;-60
2022/11/14 15:26:24;;;;;;;;;21.67;20.67;;;;;;;;5018042;28;45349;-60
2022/11/14 15:28:49;;;;;;;;;18.00;17.00;;;;;;;;4998856;28;45886;-59
2022/11/14 15:31:16;;;;;;;;;20.33;19.33;;;;;;;;5011847;28;45336;-59
2022/11/14 15:33:41;;;;;;;;;24.00;22.33;;;;;;;;5001400;28;46130;-59
2022/11/14 15:36:08;;;;;;;;;21.33;18.67;;;;;;;;5012560;28;45379;-59
2022/11/14 15:38:34;;;;;;;;;16.67;16.00;;;;;;;;4997228;28;45749;-60
2022/11/14 15:41:17;;;;;;;;;23.00;20.00;;;;;;;;5001802;28;45520;-60
2022/11/14 15:43:43;;;;;;;;;15.00;12.67;;;;;;;;5006292;28;46341;-59
2022/11/14 15:46:47;;;;;;;;;19.00;16.67;;;;;;;;4982744;28;45623;-59
2022/11/14 15:49:20;;;;;;;;;20.00;16.00;;;;;;;;4907664;28;45609;-59
2022/11/14 15:51:47;;;;;;;;;16.00;16.00;;;;;;;;4901374;28;45595;-59
2022/11/14 15:54:24;;;;;;;;;16.33;15.67;;;;;;;;4943036;28;46606;-58
2022/11/14 15:56:50;;;;;;;;;15.33;12.67;;;;;;;;4999080;28;45351;-58
2022/11/14 15:59:15;;;;;;;;;16.00;16.00;;;;;;;;5006717;28;45482;-58
2022/11/14 16:01:42;;;;;;;;;20.00;18.00;;;;;;;;5010710;28;45610;-59
2022/11/14 16:04:19;;;;;;;;;22.67;18.67;;;;;;;;4999914;28;45415;-59
2022/11/14 16:06:44;;;;;;;;;20.00;17.33;;;;;;;;5000535;28;45575;-59
2022/11/14 16:09:19;;;;;;;;;19.67;16.00;;;;;;;;4998158;28;45320;-59
2022/11/14 16:11:45;;;;;;;;;22.00;17.33;;;;;;;;4991994;28;45320;-60
2022/11/14 16:14:10;;;;;;;;;20.67;17.00;;;;;;;;5002855;28;46013;-59
2022/11/14 16:16:35;;;;;;;;;19.00;16.67;;;;;;;;5011896;28;45328;-59
2022/11/14 16:19:00;;;;;;;;;20.00;19.33;;;;;;;;4998239;28;45442;-60
2022/11/14 16:21:25;;;;;;;;;17.00;16.33;;;;;;;;5001327;28;45578;-60
2022/11/14 16:23:51;;;;;;;;;19.00;16.67;;;;;;;;5004784;28;45486;-59
2022/11/14 16:26:16;;;;;;;;;20.33;16.00;;;;;;;;5005108;28;45596;-60
2022/11/14 16:28:41;;;;;;;;;22.00;17.33;;;;;;;;5008192;28;45523;-59
2022/11/14 16:31:10;;;;;;;;;20.00;19.00;;;;;;;;5002910;28;45688;-60
2022/11/14 16:33:35;;;;;;;;;20.67;17.00;;;;;;;;5002059;28;47095;-59
2022/11/14 16:36:00;;;;;;;;;22.67;18.67;;;;;;;;5006625;28;45444;-59
2022/11/14 16:38:26;;;;;;;;;18.67;16.33;;;;;;;;5007245;28;45461;-59
2022/11/14 16:40:51;;;;;;;;;19.67;18.67;;;;;;;;5002069;28;45438;-59
2022/11/14 16:43:16;;;;;;;;;21.00;17.33;;;;;;;;5003835;28;46305;-59
2022/11/14 16:45:41;;;;;;;;;20.67;18.00;;;;;;;;5003803;28;45363;-59
2022/11/14 16:48:06;;;;;;;;;25.00;21.33;;;;;;;;5004257;28;45497;-59
2022/11/14 16:50:31;;;;;;;;;21.67;21.67;;;;;;;;5002618;28;45326;-59
2022/11/14 16:52:57;;;;;;;;;22.00;20.00;;;;;;;;4987609;28;45948;-59
2022/11/14 16:55:22;;;;;;;;;18.67;18.67;;;;;;;;5005451;28;46923;-59
2022/11/14 16:57:48;;;;;;;;;19.33;18.33;;;;;;;;4981579;28;45321;-59
2022/11/14 17:00:14;;;;;;;;;20.67;19.33;;;;;;;;5001047;28;45372;-59
2022/11/14 17:02:39;;;;;;;;;21.00;20.00;;;;;;;;5000739;28;46327;-59
2022/11/14 17:05:04;;;;;;;;;22.33;19.67;;;;;;;;5003831;28;45397;-59
2022/11/14 17:07:32;;;;;;;;;23.33;22.33;;;;;;;;4998414;28;46240;-59
2022/11/14 17:09:57;;;;;;;;;26.00;21.33;;;;;;;;5001949;28;45342;-59
2022/11/14 17:12:22;;;;;;;;;22.00;22.00;;;;;;;;5000191;28;45595;-59
2022/11/14 17:14:47;;;;;;;;;19.33;17.67;;;;;;;;5005663;28;45373;-59
2022/11/14 17:17:12;;;;;;;;;21.33;18.67;;;;;;;;5001800;28;45701;-59
2022/11/14 17:19:44;;;;;;;;;24.33;21.00;;;;;;;;4995174;28;46010;-59
2022/11/14 17:22:09;;;;;;;;;18.00;17.00;;;;;;;;5002293;28;46061;-59
2022/11/14 17:24:34;;;;;;;;;21.33;17.67;;;;;;;;5000594;28;45364;-59
2022/11/14 17:27:00;;;;;;;;;19.33;19.33;;;;;;;;4982746;28;45250;-60
2022/11/14 17:29:25;;;;;;;;;18.33;16.00;;;;;;;;4991127;28;45226;-59
2022/11/14 17:31:50;;;;;;;;;18.00;15.00;;;;;;;;4994573;28;46301;-59
2022/11/14 17:34:15;;;;;;;;;21.67;18.00;;;;;;;;5000703;28;45509;-59
2022/11/14 17:36:40;;;;;;;;;18.33;16.33;;;;;;;;5004651;28;45286;-59
2022/11/14 17:39:06;;;;;;;;;21.33;20.00;;;;;;;;5012941;28;45296;-59
2022/11/14 17:41:32;;;;;;;;;21.00;17.33;;;;;;;;5014482;28;46301;-59
2022/11/14 17:44:00;;;;;;;;;20.33;17.33;;;;;;;;5005117;28;45445;-59
2022/11/14 17:46:26;;;;;;;;;25.67;23.67;;;;;;;;5001880;28;45523;-59
2022/11/14 17:48:51;;;;;;;;;24.00;22.33;;;;;;;;5004001;28;45334;-59
2022/11/14 17:51:17;;;;;;;;;31.67;22.33;;;;;;;;4998929;28;46271;-59
2022/11/14 17:53:42;;;;;;;;;21.67;21.00;;;;;;;;5002017;28;45252;-59
2022/11/14 17:56:12;;;;;;;;;23.67;22.00;;;;;;;;5005066;28;45485;-59
2022/11/14 17:58:37;;;;;;;;;25.33;20.67;;;;;;;;4994971;28;45567;-59
2022/11/14 18:01:07;;;;;;;;;23.00;22.67;;;;;;;;4990898;28;45732;-59
2022/11/14 18:03:33;;;;;;;;;33.67;25.67;;;;;;;;5003709;28;45503;-60
2022/11/14 18:06:03;;;;;;;;;23.33;23.33;;;;;;;;4997652;28;45457;-59
2022/11/14 18:08:28;;;;;;;;;30.00;27.33;;;;;;;;4996706;28;45464;-59
2022/11/14 18:10:58;;;;;;;;;22.67;21.00;;;;;;;;4996879;28;45328;-59
2022/11/14 18:13:23;;;;;;;;;31.33;30.00;;;;;;;;5005351;28;45261;-60
2022/11/14 18:15:48;;;;;;;;;34.33;28.33;;;;;;;;4995545;28;45573;-59
2022/11/14 18:18:13;;;;;;;;;28.33;24.33;;;;;;;;4999654;28;45422;-59
2022/11/14 18:20:38;;;;;;;;;17.00;15.00;;;;;;;;5004292;28;45311;-61
2022/11/14 18:23:04;;;;;;;;;17.00;13.67;;;;;;;;5003949;28;45351;-59
2022/11/14 18:25:30;;;;;;;;;28.67;20.00;;;;;;;;5000984;28;45227;-60
2022/11/14 18:27:55;;;;;;;;;17.00;17.00;;;;;;;;5004772;28;45433;-59
2022/11/14 18:30:20;;;;;;;;;23.00;19.67;;;;;;;;5000721;28;45651;-59
2022/11/14 18:32:45;;;;;;;;;15.33;14.00;;;;;;;;5001911;28;45489;-59
2022/11/14 18:35:11;;;;;;;;;21.33;19.33;;;;;;;;5005465;28;45513;-60
2022/11/14 18:37:36;;;;;;;;;24.33;22.00;;;;;;;;5007580;28;45701;-59
2022/11/14 18:40:01;;;;;;;;;23.00;20.67;;;;;;;;5017576;28;45209;-59
2022/11/14 18:42:26;;;;;;;;;22.33;19.00;;;;;;;;5019897;28;45239;-60
2022/11/14 18:44:52;;;;;;;;;21.33;20.67;;;;;;;;5011045;28;45592;-60
2022/11/14 18:47:17;;;;;;;;;19.00;16.67;;;;;;;;5017827;28;45461;-60
2022/11/14 18:49:42;;;;;;;;;20.00;20.00;;;;;;;;5013024;28;46279;-60
2022/11/14 18:52:07;;;;;;;;;14.33;14.00;;;;;;;;5007309;28;45335;-60
2022/11/14 18:54:32;;;;;;;;;17.00;15.33;;;;;;;;5006286;28;45521;-60
2022/11/14 18:56:59;;;;;;;;;16.33;15.67;;;;;;;;5006759;28;45665;-60
2022/11/14 18:59:25;;;;;;;;;20.67;19.33;;;;;;;;5002767;28;46359;-58
2022/11/14 19:01:50;;;;;;;;;15.00;13.00;;;;;;;;4994088;28;48974;-60
2022/11/14 19:04:18;;;;;;;;;22.00;19.67;;;;;;;;4991717;28;45860;-60
2022/11/14 19:06:44;;;;;;;;;19.00;19.00;;;;;;;;5002446;28;45608;-60
2022/11/14 19:09:11;;;;;;;;;13.33;13.00;;;;;;;;4997732;28;45901;-60
2022/11/14 19:14:23;;;;;;;;;15.00;12.67;;;;;;;;5010069;28;45661;-58
2022/11/14 19:16:48;;;;;;;;;13.33;11.67;;;;;;;;4996667;28;45542;-59
2022/11/14 19:19:13;;;;;;;;;14.33;14.00;;;;;;;;4998961;28;45316;-64
2022/11/14 19:21:39;;;;;;;;;15.67;12.67;;;;;;;;4989144;28;45772;-61
2022/11/14 19:24:04;;;;;;;;;13.67;13.33;;;;;;;;4982679;28;45710;-67
2022/11/14 19:26:30;;;;;;;;;13.00;12.33;;;;;;;;4983281;28;46475;-63
2022/11/14 19:28:56;;;;;;;;;11.67;11.67;;;;;;;;4982897;28;45851;-60
2022/11/14 19:31:21;;;;;;;;;15.00;13.00;;;;;;;;4984468;28;46270;-60
2022/11/14 19:33:46;;;;;;;;;15.00;12.67;;;;;;;;4984522;28;45789;-59
2022/11/14 19:36:16;;;;;;;;;12.33;12.00;;;;;;;;4998652;28;45498;-63
2022/11/14 19:38:41;;;;;;;;;12.00;10.00;;;;;;;;4995177;28;46501;-57
2022/11/14 19:41:19;;;;;;;;;10.67;10.67;;;;;;;;4994279;28;45404;-59
2022/11/14 19:43:44;;;;;;;;;14.00;14.00;;;;;;;;4997210;28;45519;-59
2022/11/14 19:46:09;;;;;;;;;12.67;12.67;;;;;;;;4999690;28;45497;-59
2022/11/14 19:48:35;;;;;;;;;15.67;12.67;;;;;;;;4993362;28;45425;-58
2022/11/14 19:51:03;;;;;;;;;14.00;10.67;;;;;;;;5000311;28;45521;-58
2022/11/14 19:53:30;;;;;;;;;12.67;12.33;;;;;;;;4991957;28;45329;-58
2022/11/14 19:56:02;;;;;;;;;14.67;13.67;;;;;;;;5009355;28;45504;-58
2022/11/14 19:58:27;;;;;;;;;14.00;12.33;;;;;;;;5005997;28;46587;-57
2022/11/14 20:00:57;;;;;;;;;14.00;14.00;;;;;;;;5002470;28;45526;-60
2022/11/14 20:03:23;;;;;;;;;13.67;12.00;;;;;;;;5001590;28;45485;-58
2022/11/14 20:05:48;;;;;;;;;13.67;12.67;;;;;;;;5002050;28;45387;-56
2022/11/14 20:08:13;;;;;;;;;15.00;15.00;;;;;;;;5008255;28;45530;-54
2022/11/14 20:10:46;;;;;;;;;9.67;9.67;;;;;;;;5012707;28;45458;-57
2022/11/14 20:13:11;;;;;;;;;11.00;11.00;;;;;;;;5003948;28;45395;-59